sensor_id;sensor_type;location;lat;lon;timestamp;P1;durP1;ratioP1;P2;durP2;ratioP2
52468;SDS011;38381;53.688;10.776;2023-04-24T00:02:35;3.60;;;3.30;;
52468;SDS011;38381;53.688;10.776;2023-04-24T00:07:43;4.03;;;3.08;;
52468;SDS011;38381;53.688;10.776;2023-04-24T00:12:45;3.92;;;3.15;;
52468;SDS011;38381;53.688;10.776;2023-04-24T00:17:45;3.88;;;3.20;;
52468;SDS011;38381;53.688;10.776;2023-04-24T00:22:46;5.22;;;3.15;;
52468;SDS011;38381;53.688;10.776;2023-04-24T00:27:46;3.55;;;2.88;;
52468;SDS011;38381;53.688;10.776;2023-04-24T00:32:47;3.58;;;2.97;;
52468;SDS011;38381;53.688;10.776;2023-04-24T00:37:47;3.60;;;2.97;;
52468;SDS011;38381;53.688;10.776;2023-04-24T00:42:48;3.40;;;3.10;;
52468;SDS011;38381;53.688;10.776;2023-04-24T00:47:48;4.05;;;3.10;;
52468;SDS011;38381;53.688;10.776;2023-04-24T00:52:50;3.85;;;2.90;;
52468;SDS011;38381;53.688;10.776;2023-04-24T00:57:51;5.07;;;3.63;;
52468;SDS011;38381;53.688;10.776;2023-04-24T01:02:51;4.60;;;3.95;;
52468;SDS011;38381;53.688;10.776;2023-04-24T01:07:53;4.90;;;4.03;;
52468;SDS011;38381;53.688;10.776;2023-04-24T01:12:53;5.30;;;3.25;;
52468;SDS011;38381;53.688;10.776;2023-04-24T01:17:54;6.97;;;3.75;;
52468;SDS011;38381;53.688;10.776;2023-04-24T01:22:54;4.18;;;3.78;;
52468;SDS011;38381;53.688;10.776;2023-04-24T01:27:56;4.13;;;3.73;;
52468;SDS011;38381;53.688;10.776;2023-04-24T01:32:57;3.72;;;3.28;;
52468;SDS011;38381;53.688;10.776;2023-04-24T01:37:58;4.27;;;3.57;;
52468;SDS011;38381;53.688;10.776;2023-04-24T01:42:59;3.97;;;3.58;;
52468;SDS011;38381;53.688;10.776;2023-04-24T01:48:00;5.00;;;4.35;;
52468;SDS011;38381;53.688;10.776;2023-04-24T01:53:00;4.93;;;4.43;;
52468;SDS011;38381;53.688;10.776;2023-04-24T01:58:01;4.18;;;3.78;;
52468;SDS011;38381;53.688;10.776;2023-04-24T02:03:02;5.05;;;4.53;;
52468;SDS011;38381;53.688;10.776;2023-04-24T02:08:02;5.30;;;4.60;;
52468;SDS011;38381;53.688;10.776;2023-04-24T02:13:03;5.25;;;4.75;;
52468;SDS011;38381;53.688;10.776;2023-04-24T02:18:04;5.50;;;3.90;;
52468;SDS011;38381;53.688;10.776;2023-04-24T02:23:06;5.03;;;3.80;;
52468;SDS011;38381;53.688;10.776;2023-04-24T02:28:07;4.30;;;3.47;;
52468;SDS011;38381;53.688;10.776;2023-04-24T02:33:07;4.70;;;4.20;;
52468;SDS011;38381;53.688;10.776;2023-04-24T02:38:08;4.57;;;4.03;;
52468;SDS011;38381;53.688;10.776;2023-04-24T02:43:08;4.45;;;4.05;;
52468;SDS011;38381;53.688;10.776;2023-04-24T02:48:09;5.18;;;4.65;;
52468;SDS011;38381;53.688;10.776;2023-04-24T02:53:09;4.15;;;3.75;;
52468;SDS011;38381;53.688;10.776;2023-04-24T02:58:10;4.38;;;3.70;;
52468;SDS011;38381;53.688;10.776;2023-04-24T03:03:10;5.95;;;4.05;;
52468;SDS011;38381;53.688;10.776;2023-04-24T03:08:11;4.33;;;3.70;;
52468;SDS011;38381;53.688;10.776;2023-04-24T03:13:11;4.68;;;4.15;;
52468;SDS011;38381;53.688;10.776;2023-04-24T03:18:12;4.70;;;3.65;;
52468;SDS011;38381;53.688;10.776;2023-04-24T03:23:12;4.27;;;3.53;;
52468;SDS011;38381;53.688;10.776;2023-04-24T03:28:13;4.80;;;4.40;;
52468;SDS011;38381;53.688;10.776;2023-04-24T03:33:13;5.03;;;4.55;;
52468;SDS011;38381;53.688;10.776;2023-04-24T03:38:13;6.78;;;4.03;;
52468;SDS011;38381;53.688;10.776;2023-04-24T03:43:14;5.00;;;4.50;;
52468;SDS011;38381;53.688;10.776;2023-04-24T03:48:14;4.20;;;3.67;;
52468;SDS011;38381;53.688;10.776;2023-04-24T03:53:15;4.10;;;3.33;;
52468;SDS011;38381;53.688;10.776;2023-04-24T03:58:15;4.68;;;4.28;;
52468;SDS011;38381;53.688;10.776;2023-04-24T04:03:16;4.40;;;4.00;;
52468;SDS011;38381;53.688;10.776;2023-04-24T04:08:16;3.93;;;3.50;;
52468;SDS011;38381;53.688;10.776;2023-04-24T04:13:16;4.33;;;3.90;;
52468;SDS011;38381;53.688;10.776;2023-04-24T04:18:17;4.43;;;3.72;;
52468;SDS011;38381;53.688;10.776;2023-04-24T04:23:17;3.75;;;3.45;;
52468;SDS011;38381;53.688;10.776;2023-04-24T04:28:18;3.65;;;3.25;;
52468;SDS011;38381;53.688;10.776;2023-04-24T04:33:20;4.87;;;3.57;;
52468;SDS011;38381;53.688;10.776;2023-04-24T04:38:21;3.33;;;3.00;;
52468;SDS011;38381;53.688;10.776;2023-04-24T04:43:21;4.33;;;2.93;;
52468;SDS011;38381;53.688;10.776;2023-04-24T04:48:22;2.97;;;2.65;;
52468;SDS011;38381;53.688;10.776;2023-04-24T04:53:22;2.90;;;2.60;;
52468;SDS011;38381;53.688;10.776;2023-04-24T04:58:22;2.88;;;2.58;;
52468;SDS011;38381;53.688;10.776;2023-04-24T05:03:23;2.83;;;2.20;;
52468;SDS011;38381;53.688;10.776;2023-04-24T05:08:23;2.28;;;2.08;;
52468;SDS011;38381;53.688;10.776;2023-04-24T05:13:24;5.90;;;2.67;;
52468;SDS011;38381;53.688;10.776;2023-04-24T05:18:24;2.17;;;1.98;;
52468;SDS011;38381;53.688;10.776;2023-04-24T05:23:25;2.30;;;2.10;;
52468;SDS011;38381;53.688;10.776;2023-04-24T05:28:25;3.15;;;2.10;;
52468;SDS011;38381;53.688;10.776;2023-04-24T05:33:28;2.45;;;2.05;;
52468;SDS011;38381;53.688;10.776;2023-04-24T05:38:29;2.30;;;2.00;;
52468;SDS011;38381;53.688;10.776;2023-04-24T05:43:29;2.00;;;1.80;;
52468;SDS011;38381;53.688;10.776;2023-04-24T05:48:30;1.73;;;1.63;;
52468;SDS011;38381;53.688;10.776;2023-04-24T05:53:31;2.45;;;2.08;;
52468;SDS011;38381;53.688;10.776;2023-04-24T05:58:31;1.90;;;1.58;;
52468;SDS011;38381;53.688;10.776;2023-04-24T06:03:31;2.83;;;1.92;;
52468;SDS011;38381;53.688;10.776;2023-04-24T06:08:32;1.55;;;1.45;;
52468;SDS011;38381;53.688;10.776;2023-04-24T06:13:33;1.55;;;1.23;;
52468;SDS011;38381;53.688;10.776;2023-04-24T06:18:33;1.42;;;1.33;;
52468;SDS011;38381;53.688;10.776;2023-04-24T06:23:34;2.45;;;1.50;;
52468;SDS011;38381;53.688;10.776;2023-04-24T06:28:35;1.73;;;1.50;;
52468;SDS011;38381;53.688;10.776;2023-04-24T06:33:35;1.55;;;1.45;;
52468;SDS011;38381;53.688;10.776;2023-04-24T06:38:35;1.33;;;1.23;;
52468;SDS011;38381;53.688;10.776;2023-04-24T06:43:36;2.42;;;1.60;;
52468;SDS011;38381;53.688;10.776;2023-04-24T06:48:36;4.18;;;1.90;;
52468;SDS011;38381;53.688;10.776;2023-04-24T06:53:37;2.08;;;1.88;;
52468;SDS011;38381;53.688;10.776;2023-04-24T06:58:37;2.03;;;1.83;;
52468;SDS011;38381;53.688;10.776;2023-04-24T07:03:38;1.75;;;1.65;;
52468;SDS011;38381;53.688;10.776;2023-04-24T07:08:38;2.20;;;1.77;;
52468;SDS011;38381;53.688;10.776;2023-04-24T07:13:39;1.75;;;1.60;;
52468;SDS011;38381;53.688;10.776;2023-04-24T07:18:41;1.90;;;1.70;;
52468;SDS011;38381;53.688;10.776;2023-04-24T07:23:42;2.10;;;1.70;;
52468;SDS011;38381;53.688;10.776;2023-04-24T07:28:42;2.45;;;1.70;;
52468;SDS011;38381;53.688;10.776;2023-04-24T07:33:43;1.35;;;1.23;;
52468;SDS011;38381;53.688;10.776;2023-04-24T07:38:44;1.95;;;1.50;;
52468;SDS011;38381;53.688;10.776;2023-04-24T07:43:45;1.70;;;1.50;;
52468;SDS011;38381;53.688;10.776;2023-04-24T07:48:46;1.70;;;1.60;;
52468;SDS011;38381;53.688;10.776;2023-04-24T07:53:48;2.03;;;1.67;;
52468;SDS011;38381;53.688;10.776;2023-04-24T07:58:48;2.20;;;1.75;;
52468;SDS011;38381;53.688;10.776;2023-04-24T08:03:48;5.75;;;2.50;;
52468;SDS011;38381;53.688;10.776;2023-04-24T08:08:49;1.98;;;1.58;;
52468;SDS011;38381;53.688;10.776;2023-04-24T08:13:50;3.30;;;1.55;;
52468;SDS011;38381;53.688;10.776;2023-04-24T08:18:50;2.55;;;1.80;;
52468;SDS011;38381;53.688;10.776;2023-04-24T08:23:51;1.85;;;1.33;;
52468;SDS011;38381;53.688;10.776;2023-04-24T08:28:51;1.73;;;1.63;;
52468;SDS011;38381;53.688;10.776;2023-04-24T08:33:52;8.60;;;2.85;;
52468;SDS011;38381;53.688;10.776;2023-04-24T08:38:52;1.88;;;1.30;;
52468;SDS011;38381;53.688;10.776;2023-04-24T08:43:53;2.00;;;1.40;;
52468;SDS011;38381;53.688;10.776;2023-04-24T08:48:55;2.50;;;1.20;;
52468;SDS011;38381;53.688;10.776;2023-04-24T08:53:56;1.40;;;1.30;;
52468;SDS011;38381;53.688;10.776;2023-04-24T08:58:57;2.40;;;1.38;;
52468;SDS011;38381;53.688;10.776;2023-04-24T09:03:58;1.27;;;1.00;;
52468;SDS011;38381;53.688;10.776;2023-04-24T09:09:03;1.38;;;1.13;;
52468;SDS011;38381;53.688;10.776;2023-04-24T09:14:04;1.58;;;1.25;;
52468;SDS011;38381;53.688;10.776;2023-04-24T09:19:04;1.92;;;1.27;;
52468;SDS011;38381;53.688;10.776;2023-04-24T09:24:05;1.77;;;1.13;;
52468;SDS011;38381;53.688;10.776;2023-04-24T09:29:07;1.30;;;1.20;;
52468;SDS011;38381;53.688;10.776;2023-04-24T09:34:08;1.13;;;1.05;;
52468;SDS011;38381;53.688;10.776;2023-04-24T09:39:09;1.40;;;1.20;;
52468;SDS011;38381;53.688;10.776;2023-04-24T09:44:16;17.85;;;4.22;;
52468;SDS011;38381;53.688;10.776;2023-04-24T09:49:30;3.00;;;2.10;;
52468;SDS011;38381;53.688;10.776;2023-04-24T09:54:33;2.05;;;1.60;;
52468;SDS011;38381;53.688;10.776;2023-04-24T09:59:34;4.05;;;1.95;;
52468;SDS011;38381;53.688;10.776;2023-04-24T10:04:34;2.20;;;2.00;;
52468;SDS011;38381;53.688;10.776;2023-04-24T10:09:35;2.85;;;2.42;;
52468;SDS011;38381;53.688;10.776;2023-04-24T10:14:35;2.90;;;2.10;;
52468;SDS011;38381;53.688;10.776;2023-04-24T10:19:36;3.55;;;2.80;;
52468;SDS011;38381;53.688;10.776;2023-04-24T10:24:37;3.10;;;2.80;;
52468;SDS011;38381;53.688;10.776;2023-04-24T10:29:38;3.75;;;3.30;;
52468;SDS011;38381;53.688;10.776;2023-04-24T10:34:40;5.15;;;3.55;;
52468;SDS011;38381;53.688;10.776;2023-04-24T10:39:40;4.47;;;4.07;;
52468;SDS011;38381;53.688;10.776;2023-04-24T10:44:41;5.07;;;3.50;;
52468;SDS011;38381;53.688;10.776;2023-04-24T10:49:41;3.47;;;3.17;;
52468;SDS011;38381;53.688;10.776;2023-04-24T10:54:46;3.40;;;3.08;;
52468;SDS011;38381;53.688;10.776;2023-04-24T10:59:47;4.20;;;2.80;;
52468;SDS011;38381;53.688;10.776;2023-04-24T11:09:57;3.20;;;2.72;;
52468;SDS011;38381;53.688;10.776;2023-04-24T11:15:01;3.10;;;2.78;;
52468;SDS011;38381;53.688;10.776;2023-04-24T11:20:04;2.92;;;2.60;;
52468;SDS011;38381;53.688;10.776;2023-04-24T11:25:08;2.90;;;2.60;;
52468;SDS011;38381;53.688;10.776;2023-04-24T11:30:09;3.65;;;2.67;;
52468;SDS011;38381;53.688;10.776;2023-04-24T11:40:19;6.25;;;3.67;;
52468;SDS011;38381;53.688;10.776;2023-04-24T11:50:22;4.37;;;3.97;;
52468;SDS011;38381;53.688;10.776;2023-04-24T11:55:26;4.78;;;3.67;;
52468;SDS011;38381;53.688;10.776;2023-04-24T12:00:29;5.07;;;3.55;;
52468;SDS011;38381;53.688;10.776;2023-04-24T12:05:30;5.07;;;4.22;;
52468;SDS011;38381;53.688;10.776;2023-04-24T12:10:32;5.07;;;3.92;;
52468;SDS011;38381;53.688;10.776;2023-04-24T12:15:33;5.50;;;4.33;;
52468;SDS011;38381;53.688;10.776;2023-04-24T12:20:35;6.47;;;4.10;;
52468;SDS011;38381;53.688;10.776;2023-04-24T12:25:35;5.30;;;3.90;;
52468;SDS011;38381;53.688;10.776;2023-04-24T12:30:40;4.15;;;3.75;;
52468;SDS011;38381;53.688;10.776;2023-04-24T12:35:44;10.88;;;4.82;;
52468;SDS011;38381;53.688;10.776;2023-04-24T12:40:45;3.80;;;3.10;;
52468;SDS011;38381;53.688;10.776;2023-04-24T12:45:46;4.70;;;4.05;;
52468;SDS011;38381;53.688;10.776;2023-04-24T12:50:48;4.38;;;2.75;;
52468;SDS011;38381;53.688;10.776;2023-04-24T12:55:48;6.47;;;3.88;;
52468;SDS011;38381;53.688;10.776;2023-04-24T13:00:52;4.55;;;3.40;;
52468;SDS011;38381;53.688;10.776;2023-04-24T13:05:53;10.88;;;4.13;;
52468;SDS011;38381;53.688;10.776;2023-04-24T13:10:53;3.45;;;3.05;;
52468;SDS011;38381;53.688;10.776;2023-04-24T13:15:54;3.92;;;3.53;;
52468;SDS011;38381;53.688;10.776;2023-04-24T13:20:55;6.97;;;3.90;;
52468;SDS011;38381;53.688;10.776;2023-04-24T13:25:55;3.28;;;2.92;;
52468;SDS011;38381;53.688;10.776;2023-04-24T13:30:58;4.60;;;2.88;;
52468;SDS011;38381;53.688;10.776;2023-04-24T13:35:58;4.77;;;2.97;;
52468;SDS011;38381;53.688;10.776;2023-04-24T13:40:59;4.05;;;2.70;;
52468;SDS011;38381;53.688;10.776;2023-04-24T13:45:59;3.55;;;3.25;;
52468;SDS011;38381;53.688;10.776;2023-04-24T13:51:02;3.25;;;2.95;;
52468;SDS011;38381;53.688;10.776;2023-04-24T13:56:03;4.13;;;3.15;;
52468;SDS011;38381;53.688;10.776;2023-04-24T14:01:04;3.05;;;2.75;;
52468;SDS011;38381;53.688;10.776;2023-04-24T14:06:04;3.53;;;2.40;;
52468;SDS011;38381;53.688;10.776;2023-04-24T14:11:06;6.57;;;3.00;;
52468;SDS011;38381;53.688;10.776;2023-04-24T14:16:07;13.52;;;3.15;;
52468;SDS011;38381;53.688;10.776;2023-04-24T14:21:07;4.03;;;3.47;;
52468;SDS011;38381;53.688;10.776;2023-04-24T14:26:08;4.97;;;3.47;;
52468;SDS011;38381;53.688;10.776;2023-04-24T14:31:08;3.50;;;3.13;;
52468;SDS011;38381;53.688;10.776;2023-04-24T14:36:09;3.53;;;3.22;;
52468;SDS011;38381;53.688;10.776;2023-04-24T14:41:10;3.47;;;3.00;;
52468;SDS011;38381;53.688;10.776;2023-04-24T14:46:11;3.28;;;2.63;;
52468;SDS011;38381;53.688;10.776;2023-04-24T14:51:12;3.27;;;2.97;;
52468;SDS011;38381;53.688;10.776;2023-04-24T14:56:12;3.00;;;2.67;;
52468;SDS011;38381;53.688;10.776;2023-04-24T15:01:13;2.30;;;2.10;;
52468;SDS011;38381;53.688;10.776;2023-04-24T15:06:13;2.97;;;2.67;;
52468;SDS011;38381;53.688;10.776;2023-04-24T15:11:14;2.38;;;2.17;;
52468;SDS011;38381;53.688;10.776;2023-04-24T15:16:14;3.08;;;2.83;;
52468;SDS011;38381;53.688;10.776;2023-04-24T15:21:15;4.68;;;2.72;;
52468;SDS011;38381;53.688;10.776;2023-04-24T15:26:15;3.33;;;2.30;;
52468;SDS011;38381;53.688;10.776;2023-04-24T15:31:16;2.40;;;2.10;;
52468;SDS011;38381;53.688;10.776;2023-04-24T15:36:16;3.42;;;1.83;;
52468;SDS011;38381;53.688;10.776;2023-04-24T15:41:18;2.65;;;2.17;;
52468;SDS011;38381;53.688;10.776;2023-04-24T15:46:18;2.70;;;2.35;;
52468;SDS011;38381;53.688;10.776;2023-04-24T15:51:18;2.63;;;2.22;;
52468;SDS011;38381;53.688;10.776;2023-04-24T15:56:19;2.10;;;1.90;;
52468;SDS011;38381;53.688;10.776;2023-04-24T16:01:19;2.60;;;2.38;;
52468;SDS011;38381;53.688;10.776;2023-04-24T16:06:20;3.15;;;2.65;;
52468;SDS011;38381;53.688;10.776;2023-04-24T16:11:21;2.33;;;2.00;;
52468;SDS011;38381;53.688;10.776;2023-04-24T16:16:21;3.05;;;2.30;;
52468;SDS011;38381;53.688;10.776;2023-04-24T16:21:23;2.97;;;2.67;;
52468;SDS011;38381;53.688;10.776;2023-04-24T16:26:23;2.75;;;2.40;;
52468;SDS011;38381;53.688;10.776;2023-04-24T16:31:24;3.08;;;2.13;;
52468;SDS011;38381;53.688;10.776;2023-04-24T16:36:25;2.85;;;2.55;;
52468;SDS011;38381;53.688;10.776;2023-04-24T16:41:27;3.03;;;2.80;;
52468;SDS011;38381;53.688;10.776;2023-04-24T16:46:28;2.88;;;2.17;;
52468;SDS011;38381;53.688;10.776;2023-04-24T16:51:28;3.15;;;1.90;;
52468;SDS011;38381;53.688;10.776;2023-04-24T16:56:28;1.75;;;1.35;;
52468;SDS011;38381;53.688;10.776;2023-04-24T17:01:29;2.30;;;1.88;;
52468;SDS011;38381;53.688;10.776;2023-04-24T17:06:29;3.53;;;1.75;;
52468;SDS011;38381;53.688;10.776;2023-04-24T17:11:30;2.10;;;1.90;;
52468;SDS011;38381;53.688;10.776;2023-04-24T17:16:31;2.42;;;2.03;;
52468;SDS011;38381;53.688;10.776;2023-04-24T17:21:31;2.58;;;2.05;;
52468;SDS011;38381;53.688;10.776;2023-04-24T17:26:32;2.22;;;1.70;;
52468;SDS011;38381;53.688;10.776;2023-04-24T17:31:33;2.60;;;2.40;;
52468;SDS011;38381;53.688;10.776;2023-04-24T17:36:33;3.00;;;2.70;;
52468;SDS011;38381;53.688;10.776;2023-04-24T17:41:34;2.63;;;2.05;;
52468;SDS011;38381;53.688;10.776;2023-04-24T17:46:34;2.63;;;2.40;;
52468;SDS011;38381;53.688;10.776;2023-04-24T17:51:35;2.95;;;2.38;;
52468;SDS011;38381;53.688;10.776;2023-04-24T17:56:35;3.33;;;2.88;;
52468;SDS011;38381;53.688;10.776;2023-04-24T18:01:36;3.58;;;2.80;;
52468;SDS011;38381;53.688;10.776;2023-04-24T18:06:36;4.43;;;3.30;;
52468;SDS011;38381;53.688;10.776;2023-04-24T18:11:37;3.22;;;2.72;;
52468;SDS011;38381;53.688;10.776;2023-04-24T18:16:37;3.97;;;3.10;;
52468;SDS011;38381;53.688;10.776;2023-04-24T18:21:38;2.60;;;2.40;;
52468;SDS011;38381;53.688;10.776;2023-04-24T18:26:38;3.40;;;3.10;;
52468;SDS011;38381;53.688;10.776;2023-04-24T18:31:39;3.88;;;3.38;;
52468;SDS011;38381;53.688;10.776;2023-04-24T18:36:39;4.10;;;3.30;;
52468;SDS011;38381;53.688;10.776;2023-04-24T18:41:39;3.47;;;2.95;;
52468;SDS011;38381;53.688;10.776;2023-04-24T18:46:40;4.72;;;3.30;;
52468;SDS011;38381;53.688;10.776;2023-04-24T18:51:40;4.23;;;3.10;;
52468;SDS011;38381;53.688;10.776;2023-04-24T18:56:41;3.75;;;3.00;;
52468;SDS011;38381;53.688;10.776;2023-04-24T19:01:41;3.63;;;2.92;;
52468;SDS011;38381;53.688;10.776;2023-04-24T19:06:41;5.18;;;3.72;;
52468;SDS011;38381;53.688;10.776;2023-04-24T19:11:42;5.85;;;4.13;;
52468;SDS011;38381;53.688;10.776;2023-04-24T19:16:44;6.72;;;4.93;;
52468;SDS011;38381;53.688;10.776;2023-04-24T19:21:44;6.05;;;4.82;;
52468;SDS011;38381;53.688;10.776;2023-04-24T19:26:46;6.60;;;4.83;;
52468;SDS011;38381;53.688;10.776;2023-04-24T19:31:46;5.65;;;4.63;;
52468;SDS011;38381;53.688;10.776;2023-04-24T19:36:47;7.50;;;4.40;;
52468;SDS011;38381;53.688;10.776;2023-04-24T19:41:47;5.65;;;4.90;;
52468;SDS011;38381;53.688;10.776;2023-04-24T19:46:48;5.37;;;4.53;;
52468;SDS011;38381;53.688;10.776;2023-04-24T19:51:48;4.93;;;4.07;;
52468;SDS011;38381;53.688;10.776;2023-04-24T19:56:49;5.95;;;5.07;;
52468;SDS011;38381;53.688;10.776;2023-04-24T20:01:49;4.57;;;4.18;;
52468;SDS011;38381;53.688;10.776;2023-04-24T20:06:50;5.78;;;4.05;;
52468;SDS011;38381;53.688;10.776;2023-04-24T20:11:50;6.35;;;3.97;;
52468;SDS011;38381;53.688;10.776;2023-04-24T20:16:52;6.50;;;3.92;;
52468;SDS011;38381;53.688;10.776;2023-04-24T20:21:54;3.97;;;3.58;;
52468;SDS011;38381;53.688;10.776;2023-04-24T20:26:55;5.93;;;3.30;;
52468;SDS011;38381;53.688;10.776;2023-04-24T20:31:56;5.55;;;3.67;;
52468;SDS011;38381;53.688;10.776;2023-04-24T20:36:56;3.50;;;3.20;;
52468;SDS011;38381;53.688;10.776;2023-04-24T20:41:57;4.70;;;3.00;;
52468;SDS011;38381;53.688;10.776;2023-04-24T20:46:58;3.78;;;3.40;;
52468;SDS011;38381;53.688;10.776;2023-04-24T20:51:59;3.88;;;2.95;;
52468;SDS011;38381;53.688;10.776;2023-04-24T20:56:59;3.35;;;3.05;;
52468;SDS011;38381;53.688;10.776;2023-04-24T21:02:00;3.42;;;2.97;;
52468;SDS011;38381;53.688;10.776;2023-04-24T21:07:01;4.80;;;3.67;;
52468;SDS011;38381;53.688;10.776;2023-04-24T21:12:01;4.57;;;3.22;;
52468;SDS011;38381;53.688;10.776;2023-04-24T21:17:02;6.20;;;3.65;;
52468;SDS011;38381;53.688;10.776;2023-04-24T21:22:02;4.47;;;4.07;;
52468;SDS011;38381;53.688;10.776;2023-04-24T21:27:03;6.75;;;4.25;;
52468;SDS011;38381;53.688;10.776;2023-04-24T21:32:03;4.63;;;4.22;;
52468;SDS011;38381;53.688;10.776;2023-04-24T21:37:04;7.40;;;5.30;;
52468;SDS011;38381;53.688;10.776;2023-04-24T21:42:04;5.70;;;5.20;;
52468;SDS011;38381;53.688;10.776;2023-04-24T21:47:05;5.47;;;4.97;;
52468;SDS011;38381;53.688;10.776;2023-04-24T21:52:05;6.80;;;4.88;;
52468;SDS011;38381;53.688;10.776;2023-04-24T21:57:06;11.30;;;5.95;;
52468;SDS011;38381;53.688;10.776;2023-04-24T22:02:07;5.93;;;5.05;;
52468;SDS011;38381;53.688;10.776;2023-04-24T22:07:07;5.77;;;4.93;;
52468;SDS011;38381;53.688;10.776;2023-04-24T22:12:08;5.28;;;4.78;;
52468;SDS011;38381;53.688;10.776;2023-04-24T22:17:09;4.95;;;4.55;;
52468;SDS011;38381;53.688;10.776;2023-04-24T22:22:09;5.00;;;4.50;;
52468;SDS011;38381;53.688;10.776;2023-04-24T22:27:09;7.97;;;5.00;;
52468;SDS011;38381;53.688;10.776;2023-04-24T22:32:10;5.00;;;4.38;;
52468;SDS011;38381;53.688;10.776;2023-04-24T22:37:11;5.15;;;4.65;;
52468;SDS011;38381;53.688;10.776;2023-04-24T22:42:11;6.03;;;5.10;;
52468;SDS011;38381;53.688;10.776;2023-04-24T22:47:12;5.45;;;4.00;;
52468;SDS011;38381;53.688;10.776;2023-04-24T22:52:12;4.47;;;3.97;;
52468;SDS011;38381;53.688;10.776;2023-04-24T22:57:13;4.38;;;3.97;;
52468;SDS011;38381;53.688;10.776;2023-04-24T23:02:14;4.78;;;4.38;;
52468;SDS011;38381;53.688;10.776;2023-04-24T23:07:15;5.03;;;4.53;;
52468;SDS011;38381;53.688;10.776;2023-04-24T23:12:16;7.32;;;4.38;;
52468;SDS011;38381;53.688;10.776;2023-04-24T23:17:17;7.72;;;4.40;;
52468;SDS011;38381;53.688;10.776;2023-04-24T23:22:17;8.90;;;4.85;;
52468;SDS011;38381;53.688;10.776;2023-04-24T23:27:18;5.43;;;4.57;;
52468;SDS011;38381;53.688;10.776;2023-04-24T23:32:18;5.30;;;4.80;;
52468;SDS011;38381;53.688;10.776;2023-04-24T23:37:18;8.02;;;5.43;;
52468;SDS011;38381;53.688;10.776;2023-04-24T23:42:19;6.35;;;5.40;;
52468;SDS011;38381;53.688;10.776;2023-04-24T23:47:20;6.97;;;5.75;;
52468;SDS011;38381;53.688;10.776;2023-04-24T23:52:20;6.47;;;5.05;;
52468;SDS011;38381;53.688;10.776;2023-04-24T23:57:21;7.15;;;6.05;;
